Time;durP1;ratioP1;P1;durP2;ratioP2;P2;SDS_P1;SDS_P2;PMS_P1;PMS_P2;Temp;Humidity;BMP_temperature;BMP_pressure;BME280_temperature;BME280_humidity;BME280_pressure;Samples;Min_cycle;Max_cycle;Signal;HPM_P1;HPM_P2
2023/07/03 00:02:23;;;;;;;10.18;4.43;;;24.10;64.80;;;;;;7938066;22;20013;-50
2023/07/03 00:05:25;;;;;;;10.70;5.13;;;24.20;64.50;;;;;;7947186;22;20033;-51
2023/07/03 00:08:27;;;;;;;10.27;4.40;;;24.20;64.70;;;;;;7955416;22;20018;-53
2023/07/03 00:11:29;;;;;;;7.82;3.90;;;24.30;64.70;;;;;;7954565;22;20030;-52
2023/07/03 00:14:30;;;;;;;8.30;4.47;;;24.00;64.70;;;;;;7946298;22;20024;-53
2023/07/03 00:17:32;;;;;;;10.63;4.45;;;24.20;64.80;;;;;;7955193;22;20010;-52
2023/07/03 00:20:35;;;;;;;11.23;4.65;;;24.20;65.00;;;;;;7958056;22;20033;-49
2023/07/03 00:23:37;;;;;;;8.73;4.32;;;24.30;64.80;;;;;;7949017;22;20018;-52
2023/07/03 00:26:39;;;;;;;6.82;3.88;;;24.20;65.00;;;;;;7929895;22;20014;-54
2023/07/03 00:29:41;;;;;;;6.47;3.65;;;24.30;65.20;;;;;;7933502;22;20010;-53
2023/07/03 00:32:44;;;;;;;6.72;3.55;;;23.90;65.60;;;;;;7939452;22;20010;-52
2023/07/03 00:35:47;;;;;;;9.60;3.72;;;23.90;65.00;;;;;;7942517;22;20010;-52
2023/07/03 00:38:50;;;;;;;10.25;3.88;;;24.20;65.20;;;;;;7945497;22;20009;-52
2023/07/03 00:41:52;;;;;;;10.60;4.30;;;24.10;64.20;;;;;;7938151;22;20397;-52
2023/07/03 00:44:54;;;;;;;8.82;3.90;;;24.40;65.40;;;;;;7939281;22;20379;-51
2023/07/03 00:47:57;;;;;;;10.38;4.38;;;24.20;65.20;;;;;;7923428;22;20010;-52
2023/07/03 00:50:59;;;;;;;9.00;3.75;;;23.80;65.10;;;;;;7931728;22;20010;-55
2023/07/03 00:54:00;;;;;;;9.68;4.20;;;24.20;65.40;;;;;;7941483;22;20021;-53
2023/07/03 00:57:05;;;;;;;8.07;3.65;;;24.40;65.80;;;;;;7935829;22;20058;-53
2023/07/03 01:00:09;;;;;;;12.25;5.15;;;24.20;65.40;;;;;;7907848;22;20410;-55
2023/07/03 01:03:18;;;;;;;10.43;4.25;;;24.00;65.40;;;;;;7940575;22;20010;-51
2023/07/03 01:06:28;;;;;;;9.38;4.18;;;24.10;65.50;;;;;;7949390;22;20325;-55
2023/07/03 01:09:35;;;;;;;12.77;4.88;;;24.00;65.70;;;;;;7946379;22;20017;-53
2023/07/03 01:12:40;;;;;;;9.05;4.38;;;24.00;65.80;;;;;;7953000;22;20016;-52
2023/07/03 01:15:44;;;;;;;10.75;3.60;;;24.90;66.40;;;;;;7940079;22;20043;-51
2023/07/03 01:18:48;;;;;;;6.65;3.22;;;24.20;66.00;;;;;;7939229;22;20010;-51
2023/07/03 01:21:58;;;;;;;6.80;3.78;;;24.00;65.90;;;;;;7927438;22;20021;-46
2023/07/03 01:25:02;;;;;;;10.15;3.80;;;24.10;66.00;;;;;;7932554;22;20040;-51
2023/07/03 01:28:07;;;;;;;8.55;3.17;;;24.00;66.00;;;;;;7904264;22;20017;-51
2023/07/03 01:31:09;;;;;;;6.10;2.67;;;24.10;66.10;;;;;;7934930;22;20637;-53
2023/07/03 01:34:12;;;;;;;5.43;2.78;;;24.00;66.10;;;;;;7928269;22;20017;-52
2023/07/03 01:37:16;;;;;;;5.50;2.70;;;24.00;66.20;;;;;;7932824;22;20021;-51
2023/07/03 01:40:23;;;;;;;4.63;2.05;;;24.00;66.10;;;;;;7906477;22;20054;-50
2023/07/03 01:43:30;;;;;;;4.07;2.30;;;24.20;66.40;;;;;;7905429;22;20505;-52
2023/07/03 01:46:31;;;;;;;3.80;1.80;;;24.00;66.30;;;;;;7932234;22;20016;-50
2023/07/03 01:49:33;;;;;;;3.58;2.05;;;24.00;66.40;;;;;;7931908;22;20345;-56
2023/07/03 01:52:38;;;;;;;2.92;1.65;;;24.10;66.50;;;;;;7932785;22;20018;-51
2023/07/03 01:55:46;;;;;;;3.15;1.67;;;24.20;66.70;;;;;;7904478;22;20021;-55
2023/07/03 01:58:50;;;;;;;2.60;1.60;;;24.00;66.90;;;;;;7910390;22;20074;-50
2023/07/03 02:01:58;;;;;;;2.42;1.50;;;23.90;67.10;;;;;;7902363;22;20013;-51
2023/07/03 02:05:04;;;;;;;3.15;1.35;;;23.70;67.40;;;;;;7933253;22;20214;-51
2023/07/03 02:08:08;;;;;;;2.42;1.40;;;23.70;67.60;;;;;;7905305;22;20087;-48
2023/07/03 02:11:19;;;;;;;1.33;1.23;;;23.40;68.30;;;;;;7935318;22;20571;-52
2023/07/03 02:14:24;;;;;;;1.08;0.80;;;23.70;68.20;;;;;;7936047;22;20014;-47
2023/07/03 02:17:27;;;;;;;1.83;1.00;;;23.70;68.50;;;;;;7909163;22;20021;-49
2023/07/03 02:20:29;;;;;;;1.15;0.70;;;23.50;68.80;;;;;;7935924;22;20376;-51
2023/07/03 02:23:31;;;;;;;1.20;0.82;;;23.50;69.10;;;;;;7935699;22;20102;-52
2023/07/03 02:26:33;;;;;;;1.45;0.90;;;23.60;69.20;;;;;;7909058;22;20010;-51
2023/07/03 02:29:34;;;;;;;0.95;0.70;;;23.50;69.70;;;;;;7936175;22;20010;-49
2023/07/03 02:32:39;;;;;;;1.08;0.80;;;23.30;69.70;;;;;;7938355;22;20535;-52
2023/07/03 02:35:41;;;;;;;1.35;0.90;;;23.20;69.90;;;;;;7936362;22;20127;-55
2023/07/03 02:38:42;;;;;;;1.45;1.10;;;23.20;70.00;;;;;;7907175;22;20251;-52
2023/07/03 02:41:45;;;;;;;1.20;0.80;;;23.10;70.30;;;;;;7934656;22;20010;-48
2023/07/03 02:44:51;;;;;;;1.98;0.80;;;23.20;70.00;;;;;;7926908;22;20300;-51
2023/07/03 02:47:53;;;;;;;1.50;0.90;;;22.80;70.20;;;;;;7899069;22;20621;-52
2023/07/03 02:50:55;;;;;;;1.45;1.20;;;23.10;70.50;;;;;;7935105;22;20382;-50
2023/07/03 02:53:57;;;;;;;3.55;1.30;;;23.10;70.70;;;;;;7935507;22;20381;-51
2023/07/03 02:56:59;;;;;;;4.68;1.70;;;22.60;70.20;;;;;;7934175;22;20010;-54
2023/07/03 03:00:01;;;;;;;2.70;1.38;;;22.70;70.10;;;;;;7935606;22;20065;-50
2023/07/03 03:03:06;;;;;;;4.38;2.05;;;22.90;69.80;;;;;;7935178;22;20086;-48
2023/07/03 03:06:08;;;;;;;4.85;1.63;;;22.70;69.50;;;;;;7933967;22;20048;-52
2023/07/03 03:09:09;;;;;;;2.63;1.63;;;22.70;69.30;;;;;;7935816;22;20082;-53
2023/07/03 03:12:12;;;;;;;2.33;1.48;;;22.50;69.20;;;;;;7875982;22;20472;-53
2023/07/03 03:15:17;;;;;;;3.22;1.92;;;22.60;69.10;;;;;;7930763;22;20037;-54
2023/07/03 03:18:18;;;;;;;3.47;2.03;;;22.80;69.30;;;;;;7933401;22;20044;-52
2023/07/03 03:21:20;;;;;;;5.13;2.00;;;22.60;69.00;;;;;;7933696;22;20085;-54
2023/07/03 03:24:22;;;;;;;5.05;2.20;;;22.50;69.10;;;;;;7933935;22;20024;-53
2023/07/03 03:27:24;;;;;;;;;;;22.50;69.10;;;;;;7937426;22;20062;-51
2023/07/03 03:30:25;;;;;;;4.55;1.90;;;22.80;69.60;;;;;;7945027;22;20357;-52
2023/07/03 03:33:27;;;;;;;5.53;2.55;;;22.40;69.20;;;;;;7936836;22;20025;-52
2023/07/03 03:38:31;;;;;;;6.30;2.28;;;22.50;67.30;;;;;;6497774;27;20325;-52
2023/07/03 03:41:32;;;;;;;7.45;2.70;;;22.30;67.00;;;;;;6472683;27;20098;-50
2023/07/03 03:44:34;;;;;;;5.65;2.25;;;22.30;67.70;;;;;;6474744;27;20037;-55
2023/07/03 03:47:35;;;;;;;;;;;22.20;67.70;;;;;;6475635;27;20110;-50
2023/07/03 03:50:38;;;;;;;8.18;2.63;;;22.40;68.20;;;;;;6475150;27;19917;-53
2023/07/03 03:53:40;;;;;;;6.45;3.10;;;21.90;67.60;;;;;;6471936;27;20090;-54
2023/07/03 03:56:42;;;;;;;7.78;4.20;;;22.00;67.70;;;;;;6461989;27;20034;-52
2023/07/03 03:59:44;;;;;;;7.93;3.72;;;21.90;67.30;;;;;;6437951;27;20051;-54
2023/07/03 04:02:48;;;;;;;6.55;3.13;;;22.00;67.80;;;;;;6438401;27;20076;-52
2023/07/03 04:05:50;;;;;;;;;;;22.00;67.50;;;;;;6437622;27;20461;-53
2023/07/03 04:08:53;;;;;;;8.02;3.80;;;22.10;68.20;;;;;;6437722;27;19944;-53
2023/07/03 04:11:55;;;;;;;10.70;4.30;;;21.60;67.50;;;;;;6436422;27;20049;-55
2023/07/03 04:14:56;;;;;;;6.40;3.50;;;21.60;67.60;;;;;;6435979;27;20042;-54
2023/07/03 04:17:58;;;;;;;;;;;21.70;67.50;;;;;;6428489;27;20050;-53
2023/07/03 04:21:00;;;;;;;5.75;3.25;;;22.00;68.10;;;;;;6431666;27;19919;-55
2023/07/03 04:24:02;;;;;;;6.88;3.13;;;21.80;68.10;;;;;;6422057;27;20035;-61
2023/07/03 04:27:08;;;;;;;8.20;3.33;;;21.80;67.50;;;;;;6403571;27;20043;-61
2023/07/03 04:30:10;;;;;;;5.93;3.13;;;22.40;67.80;;;;;;6403369;27;20031;-60
2023/07/03 04:33:12;;;;;;;6.57;3.30;;;21.40;67.00;;;;;;6402753;27;20342;-60
2023/07/03 04:36:17;;;;;;;5.05;3.10;;;21.80;67.00;;;;;;6402198;27;20030;-60
2023/07/03 04:39:19;;;;;;;6.35;2.95;;;21.80;67.30;;;;;;6402538;27;20167;-60
2023/07/03 04:42:20;;;;;;;4.85;2.33;;;21.20;66.60;;;;;;6401979;27;20037;-60
2023/07/03 04:45:24;;;;;;;;;;;21.80;66.90;;;;;;6403415;27;20034;-60
2023/07/03 04:48:28;;;;;;;4.93;2.50;;;21.80;67.10;;;;;;6392973;27;19926;-60
2023/07/03 04:51:30;;;;;;;4.03;2.28;;;21.80;67.40;;;;;;6385015;27;20039;-59
2023/07/03 04:54:32;;;;;;;4.72;2.47;;;21.80;66.50;;;;;;6385453;27;20500;-59
2023/07/03 04:57:38;;;;;;;4.15;1.92;;;22.00;66.70;;;;;;6384991;27;20042;-59
2023/07/03 05:00:40;;;;;;;3.65;1.90;;;22.10;66.70;;;;;;6384904;27;20042;-59
2023/07/03 05:03:41;;;;;;;6.93;2.90;;;21.50;66.20;;;;;;6384696;27;20034;-60
2023/07/03 05:06:43;;;;;;;6.85;2.60;;;21.80;66.20;;;;;;6384685;27;20039;-59
2023/07/03 05:09:45;;;;;;;8.20;3.25;;;21.90;66.20;;;;;;6384740;27;20072;-60
2023/07/03 05:12:47;;;;;;;8.50;3.70;;;22.10;66.10;;;;;;6366166;27;20038;-59
2023/07/03 05:15:48;;;;;;;5.40;3.03;;;21.80;65.90;;;;;;6366505;27;20397;-60
2023/07/03 05:18:51;;;;;;;6.90;3.80;;;21.60;65.90;;;;;;6384255;27;20069;-60
2023/07/03 05:21:52;;;;;;;8.35;3.38;;;21.50;65.90;;;;;;6365521;27;20716;-59
2023/07/03 05:24:55;;;;;;;7.80;3.60;;;21.90;66.00;;;;;;6383774;27;20042;-59
2023/07/03 05:27:56;;;;;;;6.85;3.05;;;21.90;66.60;;;;;;6384037;27;20041;-59
2023/07/03 05:30:58;;;;;;;;;;;21.90;66.00;;;;;;6379058;27;20045;-59
2023/07/03 05:34:03;;;;;;;9.07;3.30;;;21.30;66.10;;;;;;6384635;27;19919;-59
2023/07/03 05:37:05;;;;;;;;;;;21.90;66.20;;;;;;6383608;27;20346;-59
2023/07/03 05:40:09;;;;;;;6.15;3.15;;;22.00;66.50;;;;;;6383530;27;20461;-59
2023/07/03 05:43:11;;;;;;;6.93;3.00;;;21.90;66.10;;;;;;6384259;27;20114;-58
2023/07/03 05:46:12;;;;;;;5.47;2.78;;;21.50;65.90;;;;;;6364513;27;20046;-59
2023/07/03 05:49:16;;;;;;;5.30;2.55;;;21.80;65.80;;;;;;6382340;27;20447;-59
2023/07/03 05:52:17;;;;;;;;;;;21.70;66.00;;;;;;6377807;27;20038;-59
2023/07/03 05:55:19;;;;;;;4.75;2.90;;;21.90;66.30;;;;;;6373347;27;19926;-59
2023/07/03 05:58:22;;;;;;;6.38;2.83;;;21.80;66.00;;;;;;6375063;27;20140;-59
2023/07/03 06:01:23;;;;;;;5.53;2.83;;;21.80;66.10;;;;;;6373413;27;20485;-59
2023/07/03 06:04:25;;;;;;;;;;;21.60;66.00;;;;;;6377754;27;20035;-59
2023/07/03 06:07:28;;;;;;;5.82;3.00;;;22.00;66.50;;;;;;6367731;27;19922;-60
2023/07/03 06:10:29;;;;;;;;;;;21.90;66.30;;;;;;6376887;27;20504;-60
2023/07/03 06:13:31;;;;;;;9.38;3.45;;;21.90;66.40;;;;;;6374898;27;20419;-60
2023/07/03 06:16:34;;;;;;;;;;;21.90;66.20;;;;;;6376562;27;20035;-59
2023/07/03 06:19:35;;;;;;;6.30;2.70;;;21.90;66.20;;;;;;6376540;27;19966;-59
2023/07/03 06:22:37;;;;;;;;;;;21.70;66.00;;;;;;6378635;27;20054;-59
2023/07/03 06:25:40;;;;;;;5.53;2.72;;;21.90;66.20;;;;;;6375954;27;19919;-59
2023/07/03 06:28:47;;;;;;;6.63;2.67;;;21.90;66.00;;;;;;6370960;27;20047;-59
2023/07/03 06:31:51;;;;;;;8.48;3.70;;;22.00;65.70;;;;;;6373486;27;20165;-59
2023/07/03 06:34:53;;;;;;;11.00;3.10;;;21.90;65.70;;;;;;6358308;27;20039;-59
2023/07/03 06:37:58;;;;;;;6.45;2.95;;;22.00;65.60;;;;;;6366482;27;20123;-59
2023/07/03 06:41:00;;;;;;;7.38;3.17;;;21.60;65.40;;;;;;6371460;27;20042;-59
2023/07/03 06:44:02;;;;;;;8.55;3.50;;;22.00;65.60;;;;;;6373376;27;20161;-59
2023/07/03 06:47:04;;;;;;;10.50;4.22;;;21.90;65.40;;;;;;6346091;27;20046;-59
2023/07/03 06:50:07;;;;;;;7.35;3.40;;;22.00;64.80;;;;;;6358190;27;20106;-60
2023/07/03 06:53:08;;;;;;;15.60;3.85;;;21.90;64.90;;;;;;6350016;27;20042;-60
2023/07/03 06:56:13;;;;;;;;;;;22.00;65.10;;;;;;6356914;27;20039;-60
2023/07/03 06:59:16;;;;;;;7.18;2.90;;;22.00;63.00;;;;;;6352085;27;20377;-59
2023/07/03 07:02:17;;;;;;;6.65;2.90;;;21.90;64.90;;;;;;6353471;27;20031;-55
2023/07/03 07:05:19;;;;;;;10.10;3.47;;;22.00;65.20;;;;;;6354511;27;20042;-59
2023/07/03 07:08:21;;;;;;;6.43;3.67;;;22.10;64.70;;;;;;6353618;27;20042;-59
2023/07/03 07:11:26;;;;;;;7.70;2.90;;;22.00;64.90;;;;;;6351952;27;20041;-60
2023/07/03 07:14:27;;;;;;;6.55;3.22;;;21.90;64.60;;;;;;6356580;27;20048;-55
2023/07/03 07:17:29;;;;;;;6.85;2.88;;;22.30;64.80;;;;;;6350194;27;20091;-61
2023/07/03 07:20:51;;;;;;;6.88;2.78;;;22.00;64.50;;;;;;6342844;27;20030;-61
2023/07/03 07:23:54;;;;;;;5.32;3.45;;;22.20;64.40;;;;;;6347369;27;20050;-59
2023/07/03 07:26:58;;;;;;;8.55;2.70;;;22.10;64.20;;;;;;6318410;27;20053;-60
2023/07/03 07:30:00;;;;;;;9.13;3.90;;;22.10;64.00;;;;;;6349737;27;20039;-55
2023/07/03 07:33:02;;;;;;;7.10;3.47;;;22.00;63.40;;;;;;6379236;27;20042;-55
2023/07/03 07:36:12;;;;;;;10.48;4.38;;;21.40;62.60;;;;;;6365794;27;20038;-59
2023/07/03 07:39:14;;;;;;;9.30;3.40;;;22.30;62.90;;;;;;6370352;27;20026;-57
2023/07/03 07:42:16;;;;;;;9.48;3.85;;;21.90;62.20;;;;;;6365809;27;20034;-60
2023/07/03 07:45:17;;;;;;;7.75;2.97;;;22.20;62.30;;;;;;6395478;27;20035;-57
2023/07/03 07:48:19;;;;;;;6.05;3.50;;;22.30;61.80;;;;;;6381130;27;20038;-59
2023/07/03 07:51:21;;;;;;;8.88;3.25;;;21.20;60.90;;;;;;6362817;27;20026;-59
2023/07/03 07:54:22;;;;;;;9.07;3.40;;;22.40;61.20;;;;;;6373361;27;20045;-60
2023/07/03 07:57:25;;;;;;;;;;;22.30;60.80;;;;;;6389556;27;20122;-60
2023/07/03 08:00:28;;;;;;;8.00;3.03;;;22.40;61.30;;;;;;6397077;27;19919;-59
2023/07/03 08:03:30;;;;;;;9.32;3.70;;;22.30;60.80;;;;;;6440532;22;20047;-59
2023/07/03 08:06:32;;;;;;;9.70;3.10;;;22.30;61.00;;;;;;6328625;28;20046;-60
2023/07/03 08:09:34;;;;;;;8.15;3.15;;;21.50;60.00;;;;;;6318706;28;20123;-59
2023/07/03 08:12:56;;;;;;;5.43;2.45;;;22.50;60.70;;;;;;6322036;22;20128;-87
2023/07/03 08:16:06;;;;;;;6.43;2.65;;;19.70;61.00;;;;;;6339266;22;20040;-59
2023/07/03 08:19:08;;;;;;;5.82;2.67;;;22.50;60.50;;;;;;6291586;28;20052;-59
2023/07/03 08:22:09;;;;;;;8.48;3.55;;;22.50;60.30;;;;;;6275307;28;20041;-60
2023/07/03 08:25:11;;;;;;;7.20;3.35;;;22.20;60.80;;;;;;6268162;28;20629;-59
2023/07/03 08:28:13;;;;;;;;;;;22.60;59.90;;;;;;6272251;28;20048;-59
2023/07/03 08:31:14;;;;;;;7.93;2.78;;;22.50;60.10;;;;;;6272185;28;20037;-61
2023/07/03 08:34:16;;;;;;;7.90;3.35;;;22.60;60.00;;;;;;6284016;28;20029;-59
2023/07/03 08:37:18;;;;;;;8.98;3.35;;;22.70;59.50;;;;;;6300816;28;20037;-60
2023/07/03 08:40:21;;;;;;;7.72;3.28;;;22.70;59.20;;;;;;6312739;28;20020;-58
2023/07/03 08:46:47;;;;;;;8.90;3.13;;;22.40;57.00;;;;;;6235003;28;20710;-58
2023/07/03 08:50:14;;;;;;;9.27;3.78;;;22.70;58.70;;;;;;6230582;28;20266;-58
2023/07/03 08:53:35;;;;;;;8.88;4.15;;;22.60;58.30;;;;;;6235261;28;20037;-57
2023/07/03 08:56:37;;;;;;;9.35;4.05;;;22.70;58.20;;;;;;6231732;28;20075;-58
2023/07/03 08:59:38;;;;;;;9.32;3.53;;;23.40;58.70;;;;;;6260787;28;20046;-57
2023/07/03 09:02:48;;;;;;;6.22;3.42;;;22.70;58.10;;;;;;6197148;28;20744;-58
2023/07/03 09:06:03;;;;;;;10.07;3.88;;;22.50;58.00;;;;;;6232129;28;20045;-58
2023/07/03 09:09:15;;;;;;;9.05;3.70;;;22.80;58.20;;;;;;6251290;28;20049;-57
2023/07/03 09:12:26;;;;;;;6.50;3.25;;;22.80;57.70;;;;;;6259633;28;20581;-57
2023/07/03 09:15:32;;;;;;;11.10;3.60;;;22.80;57.60;;;;;;6257027;28;20042;-59
2023/07/03 09:18:38;;;;;;;8.43;3.75;;;22.90;57.70;;;;;;6246517;28;20303;-58
2023/07/03 09:21:41;;;;;;;8.05;3.33;;;22.60;57.30;;;;;;6340522;22;20217;-58
2023/07/03 09:24:46;;;;;;;7.35;3.53;;;22.70;57.10;;;;;;6308025;28;20117;-58
2023/07/03 09:27:51;;;;;;;10.13;3.63;;;22.80;56.50;;;;;;6312268;28;20269;-58
2023/07/03 09:30:53;;;;;;;9.40;3.53;;;22.70;56.10;;;;;;6288321;28;20033;-59
2023/07/03 09:33:59;;;;;;;8.55;3.03;;;22.90;56.00;;;;;;6578527;22;20089;-57
2023/07/03 09:37:14;;;;;;;8.95;3.70;;;22.70;55.50;;;;;;6321025;22;20338;-90
2023/07/03 09:40:25;;;;;;;9.00;3.90;;;22.30;53.40;;;;;;6707775;22;20048;-59
2023/07/03 09:44:09;;;;;;;7.40;3.30;;;22.70;55.30;;;;;;6380359;22;20091;-87
2023/07/03 09:47:21;;;;;;;10.75;4.00;;;21.10;55.70;;;;;;6276739;28;20435;-88
2023/07/03 09:50:32;;;;;;;7.53;3.08;;;23.20;56.60;;;;;;6257316;28;20056;-87
2023/07/03 09:53:39;;;;;;;9.73;3.30;;;22.10;55.60;;;;;;6405549;22;20036;-58
2023/07/03 09:56:41;;;;;;;11.82;3.80;;;22.90;54.90;;;;;;6410658;22;20288;-88
2023/07/03 09:59:46;;;;;;;10.90;3.88;;;22.30;55.50;;;;;;6260124;28;20060;-89
2023/07/03 10:06:14;;;;;;;8.20;2.88;;;22.80;52.80;;;;;;6293547;22;20050;-89
2023/07/03 10:09:24;;;;;;;6.10;3.25;;;22.20;54.70;;;;;;6181380;28;20045;-87
2023/07/03 10:12:34;;;;;;;5.22;2.67;;;23.30;55.20;;;;;;6193550;28;20038;-88
2023/07/03 10:22:30;;;;;;;5.88;2.60;;;23.10;53.10;;;;;;6225860;28;20047;-89
2023/07/03 10:25:38;;;;;;;5.32;2.33;;;22.00;55.00;;;;;;6189712;28;20053;-87
2023/07/03 10:28:43;;;;;;;3.72;2.10;;;23.00;55.30;;;;;;6179321;28;20049;-87
2023/07/03 10:31:49;;;;;;;4.38;2.28;;;22.30;54.30;;;;;;6189044;28;20037;-87
2023/07/03 10:35:00;;;;;;;3.67;2.08;;;23.90;55.10;;;;;;6205223;28;20454;-87
2023/07/03 10:38:19;;;;;;;3.03;1.58;;;23.20;54.40;;;;;;6198592;28;20116;-87
2023/07/03 10:41:27;;;;;;;3.95;1.80;;;22.40;54.20;;;;;;6202993;28;20033;-87
2023/07/03 10:44:33;;;;;;;4.93;1.80;;;23.60;55.00;;;;;;6181564;28;20044;-87
2023/07/03 10:47:43;;;;;;;5.35;2.05;;;23.50;54.60;;;;;;6172650;28;20346;-88
2023/07/03 10:50:57;;;;;;;3.22;1.73;;;23.30;55.20;;;;;;6199370;28;20717;-88
2023/07/03 10:54:07;;;;;;;3.70;1.58;;;20.80;53.00;;;;;;6218598;28;20041;-88
2023/07/03 10:57:18;;;;;;;2.60;1.70;;;22.40;55.10;;;;;;6197524;28;20062;-88
2023/07/03 11:00:29;;;;;;;2.88;1.25;;;20.60;53.40;;;;;;6191308;28;20053;-88
2023/07/03 11:03:41;;;;;;;3.15;1.60;;;23.20;54.00;;;;;;6178827;28;20613;-89
2023/07/03 11:07:12;;;;;;;3.35;1.60;;;23.70;54.80;;;;;;6150816;28;20859;-88
2023/07/03 11:10:30;;;;;;;2.83;1.17;;;21.70;55.70;;;;;;6180956;28;20053;-89
2023/07/03 11:13:48;;;;;;;3.58;1.90;;;23.00;54.40;;;;;;6179478;28;20109;-87
2023/07/03 11:17:14;;;;;;;6.55;2.45;;;23.50;53.80;;;;;;6196614;28;20058;-88
2023/07/03 11:20:30;;;;;;;5.88;2.80;;;20.70;50.30;;;;;;6199394;22;20716;-59
2023/07/03 11:24:02;;;;;;;3.83;2.20;;;23.50;52.60;;;;;;6222323;28;20056;-57
2023/07/03 11:27:15;;;;;;;6.28;2.53;;;23.70;52.50;;;;;;6229205;28;20038;-58
2023/07/03 11:30:20;;;;;;;5.97;3.05;;;23.70;52.70;;;;;;6202475;28;20255;-57
2023/07/03 11:33:23;;;;;;;5.20;2.80;;;23.80;52.30;;;;;;6218901;28;20113;-57
2023/07/03 11:36:38;;;;;;;5.18;2.65;;;23.70;52.00;;;;;;6221451;28;20048;-59
2023/07/03 11:40:18;;;;;;;5.82;2.83;;;23.80;52.50;;;;;;6202133;28;20038;-58
2023/07/03 11:43:23;;;;;;;;;;;23.80;51.80;;;;;;6223403;28;20044;-58
2023/07/03 11:46:27;;;;;;;6.78;2.97;;;23.80;52.20;;;;;;6225625;28;19908;-57
2023/07/03 11:49:32;;;;;;;6.63;2.88;;;23.70;51.90;;;;;;6255957;28;20060;-55
2023/07/03 11:52:36;;;;;;;4.65;2.40;;;23.80;51.70;;;;;;6191273;28;20041;-59
2023/07/03 11:55:42;;;;;;;6.05;2.38;;;23.80;52.10;;;;;;6194908;28;20104;-58
2023/07/03 11:59:00;;;;;;;6.25;2.50;;;24.00;52.10;;;;;;6229312;28;20048;-56
2023/07/03 12:02:22;;;;;;;5.78;2.08;;;24.50;52.20;;;;;;6221619;28;20037;-57
2023/07/03 12:05:49;;;;;;;4.95;2.00;;;23.40;51.40;;;;;;6223619;28;20049;-55
2023/07/03 12:08:51;;;;;;;3.95;2.20;;;23.80;51.30;;;;;;6150383;28;20021;-57
2023/07/03 12:44:35;;;;;;;2.35;1.25;;;24.80;50.70;;;;;;7331218;22;20614;-54
2023/07/03 13:12:26;;;;;;;2.25;1.10;;;24.30;50.10;;;;;;6590762;22;20255;-90
2023/07/03 13:15:33;;;;;;;3.42;1.38;;;24.60;52.40;;;;;;7034572;22;20820;-57
2023/07/03 13:25:31;;;;;;;2.38;1.25;;;24.50;49.70;;;;;;6820448;22;20046;-58
2023/07/03 13:28:35;;;;;;;2.38;1.33;;;24.60;50.50;;;;;;6292223;23;20390;-58
2023/07/03 13:32:16;;;;;;;1.75;1.17;;;24.70;50.40;;;;;;7447116;22;20953;-90
2023/07/03 13:35:42;;;;;;;2.58;1.40;;;22.50;50.60;;;;;;6236564;23;20053;-88
2023/07/03 13:39:00;;;;;;;2.83;1.27;;;23.10;50.40;;;;;;6167832;28;20050;-57
2023/07/03 13:42:04;;;;;;;2.95;1.40;;;24.70;49.20;;;;;;6128163;28;20043;-56
2023/07/03 13:48:43;;;;;;;2.50;1.20;;;24.50;49.20;;;;;;6688230;22;20154;-89
2023/07/03 13:52:03;;;;;;;2.83;1.15;;;24.60;51.50;;;;;;6201859;28;20280;-90
2023/07/03 13:55:22;;;;;;;1.85;1.02;;;26.90;53.40;;;;;;7185105;22;20108;-58
2023/07/03 14:01:58;;;;;;;1.38;0.93;;;23.00;48.00;;;;;;6975962;22;20042;-58
2023/07/03 14:05:00;;;;;;;2.40;1.20;;;24.70;50.40;;;;;;6181011;28;20042;-60
2023/07/03 14:15:13;;;;;;;1.67;1.00;;;24.40;48.70;;;;;;6721196;22;20657;-58
2023/07/03 14:18:19;;;;;;;1.80;1.30;;;24.80;49.80;;;;;;6584889;22;21045;-58
2023/07/03 14:24:52;;;;;;;2.20;1.30;;;24.60;48.80;;;;;;5990705;22;20074;-56
2023/07/03 15:03:03;;;;;;;3.70;1.67;;;24.60;47.30;;;;;;6174629;28;20042;-59
2023/07/03 15:06:08;;;;;;;3.28;1.95;;;24.30;47.90;;;;;;6275746;22;20085;-54
2023/07/03 15:09:33;;;;;;;4.93;2.10;;;24.70;48.00;;;;;;6190504;23;20038;-91
2023/07/03 15:12:44;;;;;;;4.68;1.60;;;22.60;45.70;;;;;;6241275;23;20038;-90
2023/07/03 15:15:53;;;;;;;3.38;1.67;;;23.00;48.20;;;;;;6335531;22;20038;-50
2023/07/03 15:19:00;;;;;;;4.03;1.67;;;24.80;47.80;;;;;;6175515;28;20610;-56
2023/07/03 15:22:06;;;;;;;3.80;1.98;;;24.90;47.80;;;;;;6206239;28;20085;-58
2023/07/03 15:25:08;;;;;;;3.20;1.50;;;24.90;48.00;;;;;;6168558;28;20030;-57
2023/07/03 15:28:10;;;;;;;4.10;1.98;;;24.90;47.80;;;;;;6205374;28;20078;-60
2023/07/03 15:34:34;;;;;;;4.45;2.20;;;24.50;49.10;;;;;;6199884;23;20044;-59
2023/07/03 15:37:37;;;;;;;3.33;2.10;;;24.90;47.00;;;;;;7181418;22;20027;31
2023/07/03 15:40:39;;;;;;;6.82;2.35;;;24.70;46.90;;;;;;6726036;23;20049;-66
2023/07/03 15:43:44;;;;;;;5.07;2.25;;;23.70;46.00;;;;;;6341420;23;20046;-59
2023/07/03 15:46:50;;;;;;;5.72;1.80;;;25.00;46.50;;;;;;6329146;23;20054;-59
2023/07/03 15:49:55;;;;;;;4.93;2.20;;;25.00;46.40;;;;;;6171764;28;20244;-58
2023/07/03 15:56:27;;;;;;;5.18;2.28;;;24.90;45.10;;;;;;7044854;23;20025;-58
2023/07/03 15:59:29;;;;;;;4.30;2.10;;;25.10;45.80;;;;;;6979469;23;20690;-58
2023/07/03 16:02:32;;;;;;;5.20;1.85;;;25.10;46.00;;;;;;6189739;28;20051;-58
2023/07/03 16:05:34;;;;;;;3.05;1.92;;;25.10;45.80;;;;;;6304582;23;20144;-57
2023/07/03 16:08:38;;;;;;;5.38;2.03;;;25.20;46.10;;;;;;6319355;23;20054;-53
2023/07/03 16:11:39;;;;;;;3.65;1.50;;;25.20;46.50;;;;;;6279429;23;20355;-60
2023/07/03 16:17:51;;;;;;;4.60;1.98;;;25.00;45.20;;;;;;6179483;28;20038;-59
2023/07/03 16:24:24;;;;;;;2.15;1.27;;;23.10;43.30;;;;;;6837540;22;20256;-59
2023/07/03 16:27:25;;;;;;;3.13;1.50;;;25.20;45.30;;;;;;6221056;28;20034;-58
2023/07/03 16:30:28;;;;;;;4.05;1.10;;;24.90;45.20;;;;;;6207363;28;20050;-59
2023/07/03 16:33:31;;;;;;;1.23;0.90;;;25.20;45.50;;;;;;6198974;28;20037;-59
2023/07/03 16:36:33;;;;;;;2.40;1.20;;;25.30;45.30;;;;;;6177645;28;20047;-54
2023/07/03 16:43:08;;;;;;;1.20;0.80;;;25.20;44.70;;;;;;6157422;28;20075;-89
2023/07/03 16:46:15;;;;;;;1.00;0.80;;;23.70;46.10;;;;;;6171215;28;20082;-88
2023/07/03 16:49:20;;;;;;;1.33;0.80;;;23.70;46.70;;;;;;6152264;28;20097;-88
2023/07/03 16:56:00;;;;;;;0.80;0.47;;;25.30;44.30;;;;;;7497362;23;20989;-61
2023/07/03 16:59:02;;;;;;;0.80;0.65;;;25.50;45.10;;;;;;6179346;28;20557;-62
2023/07/03 17:02:04;;;;;;;1.58;0.75;;;25.50;45.10;;;;;;6169560;28;20042;-61
2023/07/03 17:05:06;;;;;;;0.80;0.40;;;25.60;45.20;;;;;;6162338;28;20035;-60
2023/07/03 17:08:08;;;;;;;1.77;0.60;;;25.70;45.00;;;;;;6158012;28;20038;-61
2023/07/03 17:11:09;;;;;;;0.52;0.45;;;25.60;44.80;;;;;;6161616;28;20525;-61
2023/07/03 17:14:18;;;;;;;0.95;0.60;;;25.20;44.90;;;;;;6165615;28;20038;-62
2023/07/03 17:17:19;;;;;;;1.00;0.60;;;25.70;44.60;;;;;;6170393;28;20528;-63
2023/07/03 17:20:21;;;;;;;0.57;0.50;;;25.70;44.70;;;;;;6163129;28;20035;-62
2023/07/03 17:23:23;;;;;;;0.80;0.60;;;25.70;44.60;;;;;;6170083;28;20061;-61
2023/07/03 17:26:24;;;;;;;0.60;0.50;;;26.40;45.00;;;;;;6166583;28;20100;-59
2023/07/03 17:29:27;;;;;;;0.90;0.70;;;25.70;45.10;;;;;;6166670;28;20053;-61
2023/07/03 17:32:28;;;;;;;0.80;0.63;;;25.80;44.90;;;;;;6166299;28;20030;-61
2023/07/03 17:35:30;;;;;;;1.02;0.60;;;25.80;44.70;;;;;;6168090;28;20042;-62
2023/07/03 17:38:34;;;;;;;0.80;0.60;;;25.70;44.80;;;;;;6168811;28;20039;-61
2023/07/03 17:41:38;;;;;;;0.80;0.60;;;25.90;44.60;;;;;;6170757;28;20039;-62
2023/07/03 17:44:40;;;;;;;0.93;0.60;;;25.80;44.50;;;;;;6169655;28;20065;-62
2023/07/03 17:47:44;;;;;;;1.15;0.70;;;25.70;44.60;;;;;;6163768;28;20510;-62
2023/07/03 17:50:46;;;;;;;0.65;0.60;;;25.40;43.90;;;;;;6168749;28;20144;-59
2023/07/03 17:53:48;;;;;;;0.88;0.60;;;25.70;44.20;;;;;;6168075;28;20418;-60
2023/07/03 17:56:50;;;;;;;0.77;0.50;;;25.30;43.80;;;;;;6150413;28;20038;-59
2023/07/03 17:59:56;;;;;;;0.63;0.50;;;25.70;44.20;;;;;;6167213;28;20075;-59
2023/07/03 18:02:58;;;;;;;0.88;0.60;;;25.40;43.10;;;;;;6170753;28;20551;-58
2023/07/03 18:06:02;;;;;;;0.60;0.55;;;25.30;44.00;;;;;;6169658;28;20053;-57
2023/07/03 18:09:03;;;;;;;0.90;0.60;;;25.50;44.20;;;;;;6169235;28;20343;-58
2023/07/03 18:12:07;;;;;;;0.80;0.50;;;25.60;44.40;;;;;;6168120;28;20057;-57
2023/07/03 18:15:12;;;;;;;1.20;0.60;;;25.40;44.40;;;;;;6169923;28;20586;-56
2023/07/03 18:18:13;;;;;;;0.60;0.50;;;25.40;45.00;;;;;;6171681;28;20046;-58
2023/07/03 18:21:15;;;;;;;0.98;0.68;;;26.20;45.70;;;;;;6170163;28;20042;-58
2023/07/03 18:24:18;;;;;;;0.88;0.40;;;25.30;45.90;;;;;;6154956;28;20038;-58
2023/07/03 18:27:21;;;;;;;0.55;0.43;;;25.30;44.90;;;;;;6170016;28;20430;-58
2023/07/03 18:30:24;;;;;;;0.60;0.40;;;25.30;46.40;;;;;;6171800;28;20453;-58
2023/07/03 18:33:25;;;;;;;0.70;0.30;;;24.90;46.60;;;;;;6171151;28;20651;-58
2023/07/03 18:36:30;;;;;;;0.47;0.35;;;25.30;47.20;;;;;;6134485;28;20038;-58
2023/07/03 18:39:33;;;;;;;0.75;0.30;;;24.80;47.20;;;;;;6174917;28;20049;-58
2023/07/03 18:42:34;;;;;;;0.20;0.20;;;25.40;48.00;;;;;;6173060;28;20031;-57